Time;durP1;ratioP1;P1;durP2;ratioP2;P2;SDS_P1;SDS_P2;PMS_P1;PMS_P2;Temp;Humidity;BMP_temperature;BMP_pressure;BME280_temperature;BME280_humidity;BME280_pressure;Samples;Min_cycle;Max_cycle;Signal;HPM_P1;HPM_P2
2021/12/27 00:01:13;;;;;;;25.25;14.25;;;;;;;;;;5101277;27;20050;-79
2021/12/27 00:03:39;;;;;;;20.88;13.43;;;;;;;;;;5133901;27;20038;-79
2021/12/27 00:06:09;;;;;;;27.98;15.00;;;;;;;;;;5112484;27;20414;-79
2021/12/27 00:08:39;;;;;;;22.20;14.15;;;;;;;;;;5130799;27;20095;-78
2021/12/27 00:11:05;;;;;;;25.58;14.98;;;;;;;;;;5133409;27;20042;-79
2021/12/27 00:13:31;;;;;;;27.15;15.10;;;;;;;;;;5123568;27;20050;-78
2021/12/27 00:15:57;;;;;;;25.30;14.63;;;;;;;;;;5110566;27;20621;-80
2021/12/27 00:18:23;;;;;;;24.95;15.45;;;;;;;;;;5115544;27;20042;-79
2021/12/27 00:20:49;;;;;;;23.85;13.60;;;;;;;;;;5114028;27;20042;-78
2021/12/27 00:23:15;;;;;;;24.75;14.00;;;;;;;;;;5126023;27;20050;-79
2021/12/27 00:25:41;;;;;;;26.65;13.95;;;;;;;;;;5116243;28;20558;-78
2021/12/27 00:28:08;;;;;;;25.02;14.73;;;;;;;;;;5155854;27;20126;-79
2021/12/27 00:30:34;;;;;;;29.65;16.15;;;;;;;;;;5123771;27;20463;-78
2021/12/27 00:33:00;;;;;;;24.58;14.95;;;;;;;;;;5090412;27;20035;-79
2021/12/27 00:35:28;;;;;;;24.67;14.88;;;;;;;;;;5139536;27;20167;-79
2021/12/27 00:37:54;;;;;;;24.60;14.07;;;;;;;;;;5130602;27;20521;-79
2021/12/27 00:40:20;;;;;;;25.73;14.90;;;;;;;;;;5114529;27;20043;-79
2021/12/27 00:42:46;;;;;;;25.63;14.75;;;;;;;;;;5125339;27;20051;-79
2021/12/27 00:45:13;;;;;;;23.60;15.50;;;;;;;;;;5120574;28;20043;-78
2021/12/27 00:47:39;;;;;;;24.88;15.32;;;;;;;;;;5123417;27;20043;-79
2021/12/27 00:50:06;;;;;;;27.33;15.77;;;;;;;;;;5112621;27;20046;-79
2021/12/27 00:52:33;;;;;;;24.08;15.52;;;;;;;;;;5120276;28;20039;-79
2021/12/27 00:55:00;;;;;;;24.48;15.32;;;;;;;;;;5101964;27;20070;-79
2021/12/27 00:57:26;;;;;;;24.52;14.68;;;;;;;;;;5103415;28;20054;-78
2021/12/27 00:59:52;;;;;;;25.02;15.52;;;;;;;;;;5116297;28;20126;-79
2021/12/27 01:02:18;;;;;;;23.20;14.18;;;;;;;;;;5095214;28;20061;-78
2021/12/27 01:04:44;;;;;;;26.40;15.93;;;;;;;;;;5129700;27;20042;-78
2021/12/27 01:07:10;;;;;;;27.00;15.57;;;;;;;;;;5110740;28;20051;-78
2021/12/27 01:10:39;;;;;;;26.55;16.58;;;;;;;;;;5128944;27;20489;-78
2021/12/27 01:12:34;;;;;;;24.20;14.77;;;;;;;;;;5134720;27;20103;-79
2021/12/27 01:17:32;;;;;;;25.60;15.73;;;;;;;;;;5127445;27;20038;-78
2021/12/27 01:19:58;;;;;;;29.58;16.52;;;;;;;;;;5124938;27;20051;-78
2021/12/27 01:22:24;;;;;;;26.67;16.35;;;;;;;;;;5137356;27;20097;-78
2021/12/27 01:24:50;;;;;;;26.63;16.08;;;;;;;;;;5122880;27;20043;-79
2021/12/27 01:27:17;;;;;;;27.52;15.70;;;;;;;;;;5161761;27;20046;-79
2021/12/27 01:29:43;;;;;;;26.10;15.70;;;;;;;;;;5128519;27;20070;-85
2021/12/27 01:32:09;;;;;;;26.27;15.70;;;;;;;;;;5101420;27;20051;-79
2021/12/27 01:34:35;;;;;;;26.48;15.43;;;;;;;;;;5111736;27;20864;-79
2021/12/27 01:37:01;;;;;;;26.75;16.17;;;;;;;;;;5122373;27;20050;-78
2021/12/27 01:39:27;;;;;;;26.33;15.75;;;;;;;;;;5115441;27;20035;-79
2021/12/27 01:41:54;;;;;;;28.13;16.13;;;;;;;;;;5091383;27;20050;-79
2021/12/27 01:44:20;;;;;;;25.98;16.52;;;;;;;;;;5135942;27;20039;-79
2021/12/27 01:46:46;;;;;;;25.70;15.93;;;;;;;;;;5109952;27;20043;-78
2021/12/27 01:49:12;;;;;;;25.77;16.13;;;;;;;;;;5113706;27;20133;-78
2021/12/27 01:51:40;;;;;;;27.80;16.98;;;;;;;;;;5105753;27;20049;-79
2021/12/27 01:54:07;;;;;;;29.17;16.88;;;;;;;;;;5131174;27;20050;-83
2021/12/27 01:56:33;;;;;;;27.70;16.95;;;;;;;;;;5161094;27;20050;-79
2021/12/27 01:58:59;;;;;;;25.08;16.67;;;;;;;;;;5126377;27;20039;-79
2021/12/27 02:01:26;;;;;;;27.80;15.70;;;;;;;;;;5138842;27;20074;-79
2021/12/27 02:03:53;;;;;;;27.27;16.70;;;;;;;;;;5136816;27;20494;-78
2021/12/27 02:06:20;;;;;;;28.58;17.10;;;;;;;;;;5114225;27;20043;-78
2021/12/27 02:08:46;;;;;;;25.88;16.48;;;;;;;;;;5131734;27;20392;-79
2021/12/27 02:11:13;;;;;;;28.45;17.77;;;;;;;;;;5105411;27;20061;-79
2021/12/27 02:13:44;;;;;;;28.40;17.05;;;;;;;;;;5125824;27;20074;-80
2021/12/27 02:16:11;;;;;;;27.00;16.88;;;;;;;;;;5099839;27;20046;-79
2021/12/27 02:18:39;;;;;;;25.13;15.70;;;;;;;;;;5104199;27;20133;-79
2021/12/27 02:21:05;;;;;;;26.10;16.08;;;;;;;;;;5108093;27;20043;-79
2021/12/27 02:23:33;;;;;;;27.52;16.83;;;;;;;;;;5125880;27;20039;-78
2021/12/27 02:25:59;;;;;;;25.58;14.98;;;;;;;;;;5101696;27;20045;-79
2021/12/27 02:28:25;;;;;;;27.45;17.20;;;;;;;;;;5118904;27;20051;-79
2021/12/27 02:30:54;;;;;;;26.15;17.88;;;;;;;;;;5138315;27;20134;-79
2021/12/27 02:33:20;;;;;;;26.00;16.80;;;;;;;;;;5139115;27;20139;-79
2021/12/27 02:35:48;;;;;;;27.02;17.77;;;;;;;;;;5145352;27;20371;-79
2021/12/27 02:38:16;;;;;;;26.20;16.50;;;;;;;;;;5102652;27;20047;-78
2021/12/27 02:40:43;;;;;;;30.38;17.63;;;;;;;;;;5142379;27;20117;-79
2021/12/27 02:43:11;;;;;;;29.05;17.90;;;;;;;;;;5162572;27;20042;-78
2021/12/27 02:45:39;;;;;;;29.30;17.38;;;;;;;;;;5108056;27;20125;-82
2021/12/27 02:48:06;;;;;;;28.02;17.40;;;;;;;;;;5133106;27;20039;-79
2021/12/27 02:50:32;;;;;;;25.55;15.48;;;;;;;;;;5115627;27;20101;-79
2021/12/27 02:52:59;;;;;;;28.45;17.02;;;;;;;;;;5120889;27;20100;-78
2021/12/27 02:55:25;;;;;;;29.50;17.70;;;;;;;;;;5129464;27;20074;-80
2021/12/27 02:57:51;;;;;;;27.58;16.95;;;;;;;;;;5133740;27;20042;-78
2021/12/27 03:00:23;;;;;;;28.38;16.85;;;;;;;;;;5125980;27;20087;-79
2021/12/27 03:02:50;;;;;;;30.23;18.70;;;;;;;;;;5127318;27;20045;-79
2021/12/27 03:05:17;;;;;;;29.08;17.27;;;;;;;;;;5129453;27;20047;-79
2021/12/27 03:07:43;;;;;;;30.40;17.73;;;;;;;;;;5119425;27;20435;-78
2021/12/27 03:10:10;;;;;;;29.92;17.50;;;;;;;;;;5128207;27;20122;-78
2021/12/27 03:12:38;;;;;;;26.38;16.77;;;;;;;;;;5143984;27;20046;-80
2021/12/27 03:15:06;;;;;;;27.80;18.33;;;;;;;;;;5124488;27;20339;-78
2021/12/27 03:17:32;;;;;;;29.52;17.55;;;;;;;;;;5136212;27;20554;-79
2021/12/27 03:19:58;;;;;;;27.83;18.15;;;;;;;;;;5135903;27;20038;-79
2021/12/27 03:22:24;;;;;;;33.35;18.05;;;;;;;;;;5129590;27;20060;-78
2021/12/27 03:24:50;;;;;;;28.65;17.55;;;;;;;;;;5127134;27;20134;-78
2021/12/27 03:27:16;;;;;;;29.63;17.48;;;;;;;;;;5139077;27;20126;-78
2021/12/27 03:29:42;;;;;;;29.30;17.40;;;;;;;;;;5108635;27;20498;-79
2021/12/27 03:32:08;;;;;;;27.20;17.75;;;;;;;;;;5099236;27;20381;-80
2021/12/27 03:34:41;;;;;;;27.08;17.95;;;;;;;;;;5129065;27;20392;-78
2021/12/27 03:37:07;;;;;;;28.58;17.73;;;;;;;;;;5116429;27;20050;-78
2021/12/27 03:39:33;;;;;;;28.75;18.30;;;;;;;;;;5114380;27;20039;-78
2021/12/27 03:41:59;;;;;;;29.55;18.15;;;;;;;;;;5135462;27;20046;-77
2021/12/27 03:44:25;;;;;;;29.15;18.60;;;;;;;;;;5116002;27;20050;-77
2021/12/27 03:46:51;;;;;;;28.60;17.83;;;;;;;;;;5111103;27;20038;-78
2021/12/27 03:49:17;;;;;;;32.78;19.55;;;;;;;;;;5122776;27;20050;-77
2021/12/27 03:51:44;;;;;;;28.83;18.75;;;;;;;;;;5128073;27;20071;-83
2021/12/27 03:54:10;;;;;;;28.38;18.13;;;;;;;;;;5110371;27;20050;-84
2021/12/27 03:56:36;;;;;;;31.40;17.95;;;;;;;;;;5128057;27;20042;-78
2021/12/27 03:59:21;;;;;;;30.63;18.98;;;;;;;;;;5112395;27;20042;-78
2021/12/27 04:01:48;;;;;;;27.92;17.90;;;;;;;;;;5110193;27;20112;-79
2021/12/27 04:04:14;;;;;;;27.30;17.73;;;;;;;;;;5117497;27;20050;-77
2021/12/27 04:06:40;;;;;;;30.58;18.10;;;;;;;;;;5151941;27;20043;-79
2021/12/27 04:09:07;;;;;;;32.13;19.35;;;;;;;;;;5109883;27;20047;-78
2021/12/27 04:11:33;;;;;;;29.75;18.05;;;;;;;;;;5126052;27;20031;-79
2021/12/27 04:14:02;;;;;;;30.55;18.90;;;;;;;;;;5114704;27;20082;-79
2021/12/27 04:16:28;;;;;;;29.95;19.67;;;;;;;;;;5102417;27;20108;-79
2021/12/27 04:18:55;;;;;;;34.05;19.77;;;;;;;;;;5135660;27;20050;-80
2021/12/27 04:21:21;;;;;;;31.08;19.90;;;;;;;;;;5115579;27;20042;-78
2021/12/27 04:23:47;;;;;;;32.20;20.70;;;;;;;;;;5155972;27;20051;-78
2021/12/27 04:26:13;;;;;;;33.47;20.77;;;;;;;;;;5104648;27;20486;-79
2021/12/27 04:28:39;;;;;;;34.03;20.05;;;;;;;;;;5105087;27;20060;-79
2021/12/27 04:31:05;;;;;;;30.23;20.17;;;;;;;;;;5113057;27;20055;-79
2021/12/27 04:33:31;;;;;;;33.42;20.65;;;;;;;;;;5124689;27;20830;-81
2021/12/27 04:35:57;;;;;;;32.95;20.80;;;;;;;;;;5113634;27;20053;-79
2021/12/27 04:38:23;;;;;;;36.95;21.58;;;;;;;;;;5108750;27;20054;-78
2021/12/27 04:40:51;;;;;;;32.25;21.15;;;;;;;;;;5119827;27;20049;-78
2021/12/27 04:43:19;;;;;;;34.38;21.13;;;;;;;;;;5116128;27;20130;-79
2021/12/27 04:45:46;;;;;;;36.33;21.80;;;;;;;;;;5119455;27;20038;-78
2021/12/27 04:48:12;;;;;;;34.20;21.67;;;;;;;;;;5115271;27;20042;-79
2021/12/27 04:50:38;;;;;;;36.65;22.40;;;;;;;;;;5113778;27;20052;-78
2021/12/27 04:53:06;;;;;;;35.42;21.98;;;;;;;;;;5102151;27;20473;-79
2021/12/27 04:55:32;;;;;;;30.10;19.52;;;;;;;;;;5136067;27;20118;-79
2021/12/27 04:57:58;;;;;;;37.05;21.05;;;;;;;;;;5117052;27;20047;-79
2021/12/27 05:00:24;;;;;;;29.85;19.80;;;;;;;;;;5149358;27;20038;-78
2021/12/27 05:02:50;;;;;;;35.28;19.83;;;;;;;;;;5115126;27;20039;-78
2021/12/27 05:05:16;;;;;;;36.63;22.42;;;;;;;;;;5110115;27;20397;-84
2021/12/27 05:07:44;;;;;;;35.72;20.65;;;;;;;;;;5107283;27;20050;-77
2021/12/27 05:10:10;;;;;;;35.30;22.08;;;;;;;;;;5117941;27;20046;-77
2021/12/27 05:12:36;;;;;;;38.22;23.05;;;;;;;;;;5126022;27;20418;-78
2021/12/27 05:15:03;;;;;;;37.90;22.63;;;;;;;;;;5120857;27;20049;-79
2021/12/27 05:17:30;;;;;;;41.47;24.02;;;;;;;;;;5120322;27;20061;-79
2021/12/27 05:19:57;;;;;;;39.88;23.10;;;;;;;;;;5110891;27;20134;-79
2021/12/27 05:22:24;;;;;;;42.72;24.88;;;;;;;;;;5109830;27;20133;-78
2021/12/27 05:24:50;;;;;;;43.30;24.38;;;;;;;;;;5120802;27;20042;-78
2021/12/27 05:27:16;;;;;;;45.22;25.30;;;;;;;;;;5120427;27;20049;-80
2021/12/27 05:29:43;;;;;;;43.47;26.58;;;;;;;;;;5087060;27;20103;-79
2021/12/27 05:32:09;;;;;;;45.58;24.67;;;;;;;;;;5122212;27;20385;-78
2021/12/27 05:34:36;;;;;;;43.78;26.13;;;;;;;;;;5123851;27;20047;-79
2021/12/27 05:37:02;;;;;;;43.35;25.20;;;;;;;;;;5102942;27;20542;-79
2021/12/27 05:39:28;;;;;;;45.20;26.40;;;;;;;;;;5102188;27;20475;-79
2021/12/27 05:41:54;;;;;;;45.25;26.30;;;;;;;;;;5129453;27;20046;-81
2021/12/27 05:44:20;;;;;;;48.22;27.88;;;;;;;;;;5118612;27;20039;-79
2021/12/27 05:46:46;;;;;;;46.88;25.58;;;;;;;;;;5146238;27;20087;-79
2021/12/27 05:49:14;;;;;;;48.80;27.73;;;;;;;;;;5134706;27;20564;-78
2021/12/27 05:51:41;;;;;;;55.00;29.20;;;;;;;;;;5158375;27;20130;-78
2021/12/27 05:54:07;;;;;;;47.33;26.45;;;;;;;;;;5127788;27;20043;-78
2021/12/27 05:56:33;;;;;;;49.15;27.77;;;;;;;;;;5122724;27;20043;-78
2021/12/27 05:58:59;;;;;;;54.40;29.77;;;;;;;;;;5142480;27;20483;-78
2021/12/27 06:01:26;;;;;;;51.22;28.05;;;;;;;;;;5109696;27;20051;-78
2021/12/27 06:03:55;;;;;;;59.83;30.50;;;;;;;;;;5128653;27;20049;-78
2021/12/27 06:06:21;;;;;;;57.67;29.13;;;;;;;;;;5115316;27;20129;-77
2021/12/27 06:08:47;;;;;;;53.50;28.38;;;;;;;;;;5129217;27;20050;-77
2021/12/27 06:11:13;;;;;;;58.40;29.67;;;;;;;;;;5101435;27;20047;-78
2021/12/27 06:13:39;;;;;;;69.65;31.95;;;;;;;;;;5104662;27;20043;-80
2021/12/27 06:16:05;;;;;;;59.83;31.08;;;;;;;;;;5130561;27;20054;-80
2021/12/27 06:18:31;;;;;;;65.43;31.15;;;;;;;;;;5116701;27;20051;-77
2021/12/27 06:20:57;;;;;;;66.93;31.30;;;;;;;;;;5126466;27;20047;-83
2021/12/27 06:23:23;;;;;;;69.50;31.90;;;;;;;;;;5130405;27;20116;-81
2021/12/27 06:25:49;;;;;;;61.88;30.70;;;;;;;;;;5119271;27;20045;-82
2021/12/27 06:28:17;;;;;;;64.25;30.65;;;;;;;;;;5132896;27;20066;-77
2021/12/27 06:30:43;;;;;;;69.35;30.95;;;;;;;;;;5110294;27;20485;-78
2021/12/27 06:33:10;;;;;;;57.35;30.75;;;;;;;;;;5110996;27;20486;-78
2021/12/27 06:35:36;;;;;;;57.22;28.10;;;;;;;;;;5099800;27;20085;-81
2021/12/27 06:38:02;;;;;;;66.50;31.70;;;;;;;;;;5130738;27;20177;-78
2021/12/27 06:40:30;;;;;;;59.00;29.52;;;;;;;;;;5126167;27;20442;-78
2021/12/27 06:42:57;;;;;;;63.60;28.88;;;;;;;;;;5161104;27;20117;-78
2021/12/27 06:45:23;;;;;;;60.92;30.73;;;;;;;;;;5127024;27;20047;-77
2021/12/27 06:47:49;;;;;;;61.40;30.20;;;;;;;;;;5129606;27;20397;-78
2021/12/27 06:50:15;;;;;;;61.10;30.40;;;;;;;;;;5122488;27;20104;-77
2021/12/27 06:52:42;;;;;;;65.25;31.02;;;;;;;;;;5104929;27;20046;-78
2021/12/27 06:55:09;;;;;;;56.63;30.45;;;;;;;;;;5128114;27;20039;-78
2021/12/27 06:57:35;;;;;;;58.25;29.10;;;;;;;;;;5105193;27;20440;-79
2021/12/27 07:00:02;;;;;;;60.53;29.75;;;;;;;;;;5127746;27;20039;-79
2021/12/27 07:02:28;;;;;;;61.28;29.67;;;;;;;;;;5106572;27;20051;-79
2021/12/27 07:04:54;;;;;;;63.67;30.73;;;;;;;;;;5155461;27;20050;-77
2021/12/27 07:07:20;;;;;;;61.80;30.92;;;;;;;;;;5123562;27;20038;-87
2021/12/27 07:09:46;;;;;;;60.13;30.08;;;;;;;;;;5142688;27;20121;-80
2021/12/27 07:12:12;;;;;;;65.97;30.70;;;;;;;;;;5121786;27;20103;-85
2021/12/27 07:14:40;;;;;;;61.78;30.38;;;;;;;;;;5108624;27;20059;-77
2021/12/27 07:17:06;;;;;;;62.53;31.30;;;;;;;;;;5106022;27;20042;-77
2021/12/27 07:19:32;;;;;;;61.00;31.63;;;;;;;;;;5160369;27;20390;-81
2021/12/27 07:21:58;;;;;;;63.00;30.08;;;;;;;;;;5141979;27;20436;-80
2021/12/27 07:24:24;;;;;;;63.38;30.40;;;;;;;;;;5105886;27;20057;-81
2021/12/27 07:26:52;;;;;;;63.42;29.05;;;;;;;;;;5143398;27;20127;-81
2021/12/27 07:29:18;;;;;;;61.65;31.05;;;;;;;;;;5106248;27;20054;-78
2021/12/27 07:31:44;;;;;;;62.80;32.03;;;;;;;;;;5118227;27;20122;-78
2021/12/27 07:34:10;;;;;;;61.00;31.58;;;;;;;;;;5134114;27;20386;-78
2021/12/27 07:36:37;;;;;;;65.35;31.10;;;;;;;;;;5127524;27;20054;-79
2021/12/27 07:39:03;;;;;;;72.30;35.28;;;;;;;;;;5098525;27;20068;-79
2021/12/27 07:41:29;;;;;;;71.28;33.30;;;;;;;;;;5108475;27;20047;-80
2021/12/27 07:43:56;;;;;;;77.38;33.47;;;;;;;;;;5127305;27;20039;-80
2021/12/27 07:46:22;;;;;;;78.13;35.90;;;;;;;;;;5127254;27;20045;-80
2021/12/27 07:48:48;;;;;;;82.63;34.22;;;;;;;;;;5104831;27;20093;-83
2021/12/27 07:51:14;;;;;;;86.25;36.85;;;;;;;;;;5097988;27;20091;-79
2021/12/27 07:53:40;;;;;;;88.65;37.72;;;;;;;;;;5149459;27;20039;-85
2021/12/27 07:56:08;;;;;;;92.75;37.65;;;;;;;;;;5119816;27;20053;-81
2021/12/27 07:58:34;;;;;;;92.30;39.20;;;;;;;;;;5105594;27;20083;-86
2021/12/27 08:01:00;;;;;;;93.75;36.85;;;;;;;;;;5116450;27;20042;-81
2021/12/27 08:03:26;;;;;;;94.32;40.45;;;;;;;;;;5121116;27;20544;-81
2021/12/27 08:05:52;;;;;;;89.10;38.78;;;;;;;;;;5120559;27;20394;-80
2021/12/27 08:08:19;;;;;;;100.55;39.63;;;;;;;;;;5102409;27;20046;-78
2021/12/27 08:10:45;;;;;;;97.32;39.22;;;;;;;;;;5101703;27;20035;-81
2021/12/27 08:13:11;;;;;;;100.70;42.28;;;;;;;;;;5109246;27;20498;-82
2021/12/27 08:15:38;;;;;;;100.20;41.72;;;;;;;;;;5104063;27;20125;-79
2021/12/27 08:18:04;;;;;;;113.88;42.70;;;;;;;;;;5150478;27;20541;-82
2021/12/27 08:20:30;;;;;;;105.53;41.33;;;;;;;;;;5131349;27;20053;-78
2021/12/27 08:22:56;;;;;;;112.53;42.35;;;;;;;;;;5106355;27;20042;-76
2021/12/27 08:25:23;;;;;;;111.22;43.67;;;;;;;;;;5122995;27;20043;-80
2021/12/27 08:27:49;;;;;;;123.50;45.08;;;;;;;;;;5108467;27;20045;-85
2021/12/27 08:30:15;;;;;;;112.63;41.17;;;;;;;;;;5105853;27;20428;-81
2021/12/27 08:32:42;;;;;;;131.90;46.10;;;;;;;;;;5114941;27;20104;-85
2021/12/27 08:35:09;;;;;;;126.45;44.00;;;;;;;;;;5102915;27;20062;-81
2021/12/27 08:37:36;;;;;;;114.28;43.25;;;;;;;;;;5093230;27;20054;-78
2021/12/27 08:40:02;;;;;;;127.07;46.17;;;;;;;;;;5106514;27;20548;-79
2021/12/27 08:42:28;;;;;;;135.65;45.33;;;;;;;;;;5125053;27;20117;-78
2021/12/27 08:44:54;;;;;;;140.05;45.03;;;;;;;;;;5126623;27;20035;-81
2021/12/27 08:47:21;;;;;;;150.05;46.80;;;;;;;;;;5124153;27;20050;-83
2021/12/27 08:49:47;;;;;;;155.20;50.42;;;;;;;;;;5105297;27;20043;-77
2021/12/27 08:52:13;;;;;;;158.07;48.50;;;;;;;;;;5102856;27;20042;-79
2021/12/27 08:54:39;;;;;;;165.15;51.15;;;;;;;;;;5141169;27;20389;-78
2021/12/27 08:57:09;;;;;;;166.02;48.58;;;;;;;;;;5119393;27;20050;-82
2021/12/27 08:59:35;;;;;;;172.88;49.78;;;;;;;;;;5134876;27;20133;-80
2021/12/27 09:02:01;;;;;;;153.18;45.80;;;;;;;;;;5112508;27;20045;-75
2021/12/27 09:04:27;;;;;;;163.73;47.70;;;;;;;;;;5109087;27;20500;-78
2021/12/27 09:06:53;;;;;;;165.32;49.17;;;;;;;;;;5104944;27;20046;-87
2021/12/27 09:09:20;;;;;;;170.57;51.40;;;;;;;;;;5129434;27;20047;-78
2021/12/27 09:11:47;;;;;;;168.20;47.80;;;;;;;;;;5114963;27;20086;-77
2021/12/27 09:14:13;;;;;;;180.60;51.92;;;;;;;;;;5111789;27;20475;-76
2021/12/27 09:16:39;;;;;;;153.60;45.78;;;;;;;;;;5112156;27;20046;-80
2021/12/27 09:19:05;;;;;;;177.95;49.33;;;;;;;;;;5132176;27;20276;-80
2021/12/27 09:21:31;;;;;;;177.45;49.97;;;;;;;;;;5113353;27;20049;-78
2021/12/27 09:23:57;;;;;;;184.18;53.03;;;;;;;;;;5126907;27;20363;-77
2021/12/27 09:26:23;;;;;;;158.27;47.17;;;;;;;;;;5106214;27;20077;-79
2021/12/27 09:28:50;;;;;;;186.55;53.33;;;;;;;;;;5104824;27;20050;-80
2021/12/27 09:31:16;;;;;;;176.10;48.20;;;;;;;;;;5089560;27;20413;-76
2021/12/27 09:33:42;;;;;;;190.05;59.40;;;;;;;;;;5105603;27;20049;-74
2021/12/27 09:36:08;;;;;;;151.85;46.50;;;;;;;;;;5088494;27;20068;-77
2021/12/27 09:38:34;;;;;;;183.07;54.47;;;;;;;;;;5129491;27;20038;-78
2021/12/27 09:41:00;;;;;;;153.63;47.20;;;;;;;;;;5116534;27;20050;-77
2021/12/27 09:43:27;;;;;;;160.68;47.80;;;;;;;;;;5134007;27;20117;-74
2021/12/27 09:45:53;;;;;;;146.13;47.60;;;;;;;;;;5103704;27;20048;-76
2021/12/27 09:48:19;;;;;;;133.40;44.63;;;;;;;;;;5118111;27;20038;-80
2021/12/27 09:50:48;;;;;;;127.38;45.47;;;;;;;;;;5115176;27;20038;-81
2021/12/27 09:53:14;;;;;;;133.57;43.22;;;;;;;;;;5133467;27;20053;-82
2021/12/27 09:55:40;;;;;;;113.22;41.35;;;;;;;;;;5118318;27;20075;-79
2021/12/27 09:58:06;;;;;;;135.50;47.53;;;;;;;;;;5114102;27;20552;-77
2021/12/27 10:00:34;;;;;;;129.35;42.72;;;;;;;;;;5118393;27;20129;-78
2021/12/27 10:03:00;;;;;;;135.20;45.67;;;;;;;;;;5140808;27;20124;-78
2021/12/27 10:05:27;;;;;;;154.15;46.88;;;;;;;;;;5102999;27;20050;-74
2021/12/27 10:07:54;;;;;;;124.00;43.70;;;;;;;;;;5136256;27;20031;-75
2021/12/27 10:10:20;;;;;;;130.55;43.95;;;;;;;;;;5115347;27;20046;-77
2021/12/27 10:12:47;;;;;;;112.68;40.33;;;;;;;;;;5132125;27;20422;-84
2021/12/27 10:15:16;;;;;;;129.40;43.47;;;;;;;;;;5148449;27;20039;-79
2021/12/27 10:17:42;;;;;;;112.50;41.85;;;;;;;;;;5121271;27;20496;-80
2021/12/27 10:20:16;;;;;;;132.43;43.85;;;;;;;;;;5124296;27;20131;-78
2021/12/27 10:22:43;;;;;;;140.02;43.33;;;;;;;;;;5131632;27;20046;-80
2021/12/27 10:25:14;;;;;;;184.13;50.22;;;;;;;;;;5139320;27;20393;-75
2021/12/27 10:27:40;;;;;;;179.57;46.13;;;;;;;;;;5119162;27;20084;-79
2021/12/27 10:30:10;;;;;;;192.27;51.00;;;;;;;;;;5133169;27;20054;-79
2021/12/27 10:32:36;;;;;;;211.02;50.20;;;;;;;;;;5119499;27;20441;-80
2021/12/27 10:35:05;;;;;;;189.68;51.65;;;;;;;;;;5114920;27;20121;-84
2021/12/27 10:37:32;;;;;;;231.48;52.40;;;;;;;;;;5132604;27;20049;-87
2021/12/27 10:40:02;;;;;;;206.57;54.22;;;;;;;;;;5112478;27;20051;-81
2021/12/27 10:42:30;;;;;;;266.58;57.38;;;;;;;;;;5131754;27;20056;-81
2021/12/27 10:44:58;;;;;;;245.52;55.35;;;;;;;;;;5122863;27;20070;-85
2021/12/27 10:47:26;;;;;;;194.52;50.53;;;;;;;;;;5114812;27;20053;-81
2021/12/27 10:49:52;;;;;;;187.15;52.80;;;;;;;;;;5114951;27;20054;-79
2021/12/27 10:52:19;;;;;;;254.32;54.33;;;;;;;;;;5116646;27;20046;-79
2021/12/27 10:54:45;;;;;;;219.43;54.00;;;;;;;;;;5130726;27;20038;-80
2021/12/27 10:57:11;;;;;;;198.90;52.65;;;;;;;;;;5131294;27;20452;-77
2021/12/27 10:59:37;;;;;;;302.42;60.22;;;;;;;;;;5131045;27;20465;-82
2021/12/27 11:02:11;;;;;;;282.95;58.53;;;;;;;;;;5095926;27;20046;-76
2021/12/27 11:04:37;;;;;;;267.13;56.53;;;;;;;;;;5112690;27;20039;-75
2021/12/27 11:07:04;;;;;;;263.75;57.20;;;;;;;;;;5127660;27;20091;-74
2021/12/27 11:09:31;;;;;;;280.55;60.38;;;;;;;;;;5125605;27;20061;-78
2021/12/27 11:11:58;;;;;;;256.55;59.53;;;;;;;;;;5136835;27;20034;-85
2021/12/27 11:14:24;;;;;;;249.43;56.08;;;;;;;;;;5115974;27;20046;-79
2021/12/27 11:16:50;;;;;;;242.85;54.38;;;;;;;;;;5130587;27;20114;-83
2021/12/27 11:19:16;;;;;;;226.88;57.00;;;;;;;;;;5118122;27;20047;-74
2021/12/27 11:21:44;;;;;;;292.35;61.67;;;;;;;;;;5131284;27;20042;-78
2021/12/27 11:24:11;;;;;;;224.15;55.70;;;;;;;;;;5114845;27;20170;-73
2021/12/27 11:26:38;;;;;;;270.17;57.58;;;;;;;;;;5111000;27;20053;-75
2021/12/27 11:29:10;;;;;;;215.63;54.20;;;;;;;;;;5126490;27;20135;-74
2021/12/27 11:31:37;;;;;;;263.50;60.83;;;;;;;;;;5125295;27;20051;-74
2021/12/27 11:34:07;;;;;;;256.38;56.72;;;;;;;;;;5123157;27;20035;-75
2021/12/27 11:36:38;;;;;;;235.27;54.53;;;;;;;;;;5123584;27;20039;-76
2021/12/27 11:39:19;;;;;;;292.50;62.80;;;;;;;;;;5114553;27;20065;-74
2021/12/27 11:41:57;;;;;;;233.27;53.35;;;;;;;;;;5126823;27;20078;-76
2021/12/27 11:44:32;;;;;;;322.35;62.95;;;;;;;;;;5125735;27;20066;-78
2021/12/27 11:46:59;;;;;;;234.60;54.72;;;;;;;;;;5110376;27;20046;-75
2021/12/27 11:49:45;;;;;;;302.70;59.70;;;;;;;;;;5131867;27;20095;-78
2021/12/27 11:52:15;;;;;;;325.77;60.83;;;;;;;;;;5124884;27;20034;-78
2021/12/27 11:54:53;;;;;;;325.75;62.70;;;;;;;;;;5108583;27;20075;-86
2021/12/27 11:57:38;;;;;;;312.50;59.55;;;;;;;;;;5143507;27;20439;-84
2021/12/27 12:00:17;;;;;;;326.42;61.00;;;;;;;;;;5158642;27;20042;-84
2021/12/27 12:02:44;;;;;;;314.20;59.53;;;;;;;;;;5114889;27;20047;-79
2021/12/27 12:05:10;;;;;;;345.70;62.95;;;;;;;;;;5164986;27;20061;-84
2021/12/27 12:07:36;;;;;;;351.42;64.22;;;;;;;;;;5117939;27;20038;-78
2021/12/27 12:10:02;;;;;;;279.23;61.00;;;;;;;;;;5116151;27;20170;-78
2021/12/27 12:12:28;;;;;;;292.52;59.13;;;;;;;;;;5130248;27;20077;-80
2021/12/27 12:14:55;;;;;;;289.08;58.58;;;;;;;;;;5128801;27;20039;-76
2021/12/27 12:17:37;;;;;;;341.80;64.57;;;;;;;;;;5111311;27;20042;-80
2021/12/27 12:20:03;;;;;;;290.85;57.65;;;;;;;;;;5111574;27;20063;-80
2021/12/27 12:22:33;;;;;;;265.77;57.05;;;;;;;;;;5129372;27;20047;-75
2021/12/27 12:25:25;;;;;;;248.95;56.22;;;;;;;;;;5114206;27;20086;-79
2021/12/27 12:27:54;;;;;;;318.48;54.25;;;;;;;;;;5104627;27;20047;-77
2021/12/27 12:30:21;;;;;;;298.67;59.65;;;;;;;;;;5124201;27;20046;-74
2021/12/27 12:32:57;;;;;;;333.75;64.18;;;;;;;;;;5109508;27;20405;-75
2021/12/27 12:35:35;;;;;;;254.38;57.97;;;;;;;;;;5112345;27;20043;-82
2021/12/27 12:38:12;;;;;;;284.63;58.15;;;;;;;;;;5126747;27;20046;-84
2021/12/27 12:40:38;;;;;;;289.38;59.40;;;;;;;;;;5111056;27;20385;-80
2021/12/27 12:43:04;;;;;;;322.33;59.10;;;;;;;;;;5098317;27;20050;-79
2021/12/27 12:45:34;;;;;;;291.27;59.13;;;;;;;;;;5126025;27;20042;-78
2021/12/27 12:48:00;;;;;;;412.45;69.75;;;;;;;;;;5100693;27;20505;-79
2021/12/27 12:50:27;;;;;;;370.92;64.07;;;;;;;;;;5118377;27;20401;-81
2021/12/27 12:52:54;;;;;;;428.65;66.10;;;;;;;;;;5116755;27;20133;-74
2021/12/27 12:55:25;;;;;;;333.23;62.42;;;;;;;;;;5115162;27;20047;-83
2021/12/27 12:57:51;;;;;;;377.33;65.93;;;;;;;;;;5115502;27;20139;-81
2021/12/27 13:00:24;;;;;;;307.23;61.33;;;;;;;;;;5115241;27;20046;-77
2021/12/27 13:02:50;;;;;;;370.73;65.47;;;;;;;;;;5114929;27;20103;-78
2021/12/27 13:05:18;;;;;;;327.73;57.03;;;;;;;;;;5111799;27;20905;-74
2021/12/27 13:07:46;;;;;;;350.50;60.97;;;;;;;;;;5130699;27;20039;-76
2021/12/27 13:10:18;;;;;;;336.17;61.75;;;;;;;;;;5119759;27;20505;-77
2021/12/27 13:12:44;;;;;;;353.75;60.25;;;;;;;;;;5124648;27;20053;-86
2021/12/27 13:15:18;;;;;;;316.75;58.05;;;;;;;;;;5118522;27;20486;-80
2021/12/27 13:17:59;;;;;;;255.90;55.55;;;;;;;;;;5148829;27;20039;-78
2021/12/27 13:20:25;;;;;;;278.33;56.53;;;;;;;;;;5117175;27;20047;-77
2021/12/27 13:22:54;;;;;;;339.50;61.38;;;;;;;;;;5119087;27;20091;-78
2021/12/27 13:25:34;;;;;;;340.98;59.33;;;;;;;;;;5134315;27;20548;-77
2021/12/27 13:28:04;;;;;;;347.35;60.95;;;;;;;;;;5134758;27;20069;-77
2021/12/27 13:30:30;;;;;;;310.38;58.42;;;;;;;;;;5140800;27;20039;-77
2021/12/27 13:32:56;;;;;;;326.25;59.33;;;;;;;;;;5122123;27;20039;-77
2021/12/27 13:35:22;;;;;;;344.95;62.40;;;;;;;;;;5117330;27;20046;-80
2021/12/27 13:37:49;;;;;;;326.75;59.25;;;;;;;;;;5118615;27;20047;-77
2021/12/27 13:40:16;;;;;;;313.23;59.08;;;;;;;;;;5116826;27;20046;-79
2021/12/27 13:42:43;;;;;;;325.40;61.17;;;;;;;;;;5126153;27;20074;-78
2021/12/27 13:45:14;;;;;;;367.90;66.65;;;;;;;;;;5134398;27;20449;-81
2021/12/27 13:47:54;;;;;;;311.33;54.05;;;;;;;;;;5124170;27;20108;-76
2021/12/27 13:50:28;;;;;;;345.98;61.45;;;;;;;;;;5116024;27;20034;-71
2021/12/27 13:52:56;;;;;;;313.77;59.40;;;;;;;;;;5133408;27;20492;-78
2021/12/27 13:55:30;;;;;;;328.48;59.78;;;;;;;;;;5114372;27;20051;-76
2021/12/27 13:57:56;;;;;;;263.90;54.58;;;;;;;;;;5131845;27;20045;-74
2021/12/27 14:00:30;;;;;;;326.63;62.05;;;;;;;;;;5132487;27;20043;-76
2021/12/27 14:02:58;;;;;;;424.90;66.10;;;;;;;;;;5116481;27;20046;-79
2021/12/27 14:05:26;;;;;;;329.42;57.53;;;;;;;;;;5132196;27;20039;-82
2021/12/27 14:07:53;;;;;;;288.85;54.00;;;;;;;;;;5117081;27;20038;-76
2021/12/27 14:10:20;;;;;;;351.45;60.03;;;;;;;;;;5117708;27;20107;-76
2021/12/27 14:12:56;;;;;;;349.35;60.78;;;;;;;;;;5138287;27;20422;-76
2021/12/27 14:15:27;;;;;;;316.58;60.25;;;;;;;;;;5120778;27;20043;-78